sensor_id;sensor_type;location;lat;lon;timestamp;P1;durP1;ratioP1;P2;durP2;ratioP2
21979;SDS011;11154;48.558;9.234;2022-08-11T00:01:32;1.50;;;1.17;;
21979;SDS011;11154;48.558;9.234;2022-08-11T00:03:34;3.30;;;1.40;;
21979;SDS011;11154;48.558;9.234;2022-08-11T00:05:42;1.45;;;1.10;;
21979;SDS011;11154;48.558;9.234;2022-08-11T00:07:46;4.40;;;1.40;;
21979;SDS011;11154;48.558;9.234;2022-08-11T00:09:50;2.05;;;1.20;;
21979;SDS011;11154;48.558;9.234;2022-08-11T00:11:53;2.65;;;1.42;;
21979;SDS011;11154;48.558;9.234;2022-08-11T00:13:57;3.92;;;1.33;;
21979;SDS011;11154;48.558;9.234;2022-08-11T00:15:59;2.42;;;1.13;;
21979;SDS011;11154;48.558;9.234;2022-08-11T00:18:04;1.85;;;1.33;;
21979;SDS011;11154;48.558;9.234;2022-08-11T00:20:07;2.40;;;1.30;;
21979;SDS011;11154;48.558;9.234;2022-08-11T00:22:12;3.90;;;1.25;;
21979;SDS011;11154;48.558;9.234;2022-08-11T00:24:21;5.00;;;1.50;;
21979;SDS011;11154;48.558;9.234;2022-08-11T00:26:24;3.10;;;1.38;;
21979;SDS011;11154;48.558;9.234;2022-08-11T00:28:27;2.70;;;1.50;;
21979;SDS011;11154;48.558;9.234;2022-08-11T00:30:37;1.40;;;1.25;;
21979;SDS011;11154;48.558;9.234;2022-08-11T00:32:40;4.53;;;1.50;;
21979;SDS011;11154;48.558;9.234;2022-08-11T00:34:45;2.50;;;1.40;;
21979;SDS011;11154;48.558;9.234;2022-08-11T00:36:49;2.60;;;1.60;;
21979;SDS011;11154;48.558;9.234;2022-08-11T00:38:53;2.65;;;1.48;;
21979;SDS011;11154;48.558;9.234;2022-08-11T00:41:05;1.60;;;1.40;;
21979;SDS011;11154;48.558;9.234;2022-08-11T00:43:16;3.50;;;1.20;;
21979;SDS011;11154;48.558;9.234;2022-08-11T00:45:23;2.03;;;1.30;;
21979;SDS011;11154;48.558;9.234;2022-08-11T00:47:37;1.85;;;1.40;;
21979;SDS011;11154;48.558;9.234;2022-08-11T00:49:54;1.50;;;1.20;;
21979;SDS011;11154;48.558;9.234;2022-08-11T00:52:07;1.98;;;1.40;;
21979;SDS011;11154;48.558;9.234;2022-08-11T00:54:24;2.55;;;1.40;;
21979;SDS011;11154;48.558;9.234;2022-08-11T00:59:25;2.65;;;1.50;;
21979;SDS011;11154;48.558;9.234;2022-08-11T01:01:47;2.38;;;1.42;;
21979;SDS011;11154;48.558;9.234;2022-08-11T01:04:10;2.95;;;1.52;;
21979;SDS011;11154;48.558;9.234;2022-08-11T01:06:40;1.92;;;1.40;;
21979;SDS011;11154;48.558;9.234;2022-08-11T01:09:13;2.28;;;1.50;;
21979;SDS011;11154;48.558;9.234;2022-08-11T01:11:33;2.13;;;1.40;;
21979;SDS011;11154;48.558;9.234;2022-08-11T01:16:49;2.25;;;1.50;;
21979;SDS011;11154;48.558;9.234;2022-08-11T01:22:18;2.15;;;1.30;;
21979;SDS011;11154;48.558;9.234;2022-08-11T01:27:33;2.30;;;1.40;;
21979;SDS011;11154;48.558;9.234;2022-08-11T01:40:46;1.63;;;1.52;;
21979;SDS011;11154;48.558;9.234;2022-08-11T01:43:13;4.05;;;1.50;;
21979;SDS011;11154;48.558;9.234;2022-08-11T01:45:52;2.05;;;1.40;;
21979;SDS011;11154;48.558;9.234;2022-08-11T01:48:01;1.52;;;1.20;;
21979;SDS011;11154;48.558;9.234;2022-08-11T01:50:17;1.58;;;1.27;;
21979;SDS011;11154;48.558;9.234;2022-08-11T01:54:31;3.05;;;1.73;;
21979;SDS011;11154;48.558;9.234;2022-08-11T01:56:45;2.50;;;1.70;;
21979;SDS011;11154;48.558;9.234;2022-08-11T01:58:59;2.17;;;1.38;;
21979;SDS011;11154;48.558;9.234;2022-08-11T02:01:13;2.70;;;1.55;;
21979;SDS011;11154;48.558;9.234;2022-08-11T02:03:28;2.42;;;1.38;;
21979;SDS011;11154;48.558;9.234;2022-08-11T02:05:44;1.88;;;1.50;;
21979;SDS011;11154;48.558;9.234;2022-08-11T02:10:13;1.70;;;1.30;;
21979;SDS011;11154;48.558;9.234;2022-08-11T02:12:43;2.25;;;1.40;;
21979;SDS011;11154;48.558;9.234;2022-08-11T02:14:53;1.35;;;1.25;;
21979;SDS011;11154;48.558;9.234;2022-08-11T02:19:36;1.70;;;1.35;;
21979;SDS011;11154;48.558;9.234;2022-08-11T02:22:02;2.72;;;1.10;;
21979;SDS011;11154;48.558;9.234;2022-08-11T02:24:31;1.35;;;1.23;;
21979;SDS011;11154;48.558;9.234;2022-08-11T02:26:43;2.55;;;1.70;;
21979;SDS011;11154;48.558;9.234;2022-08-11T02:28:55;1.90;;;1.38;;
21979;SDS011;11154;48.558;9.234;2022-08-11T02:31:06;2.97;;;1.33;;
21979;SDS011;11154;48.558;9.234;2022-08-11T02:33:31;2.47;;;1.45;;
21979;SDS011;11154;48.558;9.234;2022-08-11T02:35:40;2.67;;;1.58;;
21979;SDS011;11154;48.558;9.234;2022-08-11T02:37:50;3.03;;;1.80;;
21979;SDS011;11154;48.558;9.234;2022-08-11T02:40:16;3.83;;;1.40;;
21979;SDS011;11154;48.558;9.234;2022-08-11T02:42:25;3.50;;;1.58;;
21979;SDS011;11154;48.558;9.234;2022-08-11T02:44:33;2.70;;;1.80;;
21979;SDS011;11154;48.558;9.234;2022-08-11T02:46:52;2.03;;;1.35;;
21979;SDS011;11154;48.558;9.234;2022-08-11T02:49:04;3.67;;;1.60;;
21979;SDS011;11154;48.558;9.234;2022-08-11T02:51:38;2.92;;;1.80;;
21979;SDS011;11154;48.558;9.234;2022-08-11T02:55:56;2.00;;;1.60;;
21979;SDS011;11154;48.558;9.234;2022-08-11T02:58:09;2.22;;;1.77;;
21979;SDS011;11154;48.558;9.234;2022-08-11T03:00:15;2.00;;;1.80;;
21979;SDS011;11154;48.558;9.234;2022-08-11T03:02:39;4.00;;;1.77;;
21979;SDS011;11154;48.558;9.234;2022-08-11T03:04:54;3.25;;;1.60;;
21979;SDS011;11154;48.558;9.234;2022-08-11T03:07:04;1.50;;;1.40;;
21979;SDS011;11154;48.558;9.234;2022-08-11T03:09:16;3.33;;;1.73;;
21979;SDS011;11154;48.558;9.234;2022-08-11T03:14:05;3.63;;;2.00;;
21979;SDS011;11154;48.558;9.234;2022-08-11T03:16:31;1.63;;;1.42;;
21979;SDS011;11154;48.558;9.234;2022-08-11T03:18:53;2.85;;;1.60;;
21979;SDS011;11154;48.558;9.234;2022-08-11T03:21:15;2.03;;;1.70;;
21979;SDS011;11154;48.558;9.234;2022-08-11T03:23:22;1.75;;;1.40;;
21979;SDS011;11154;48.558;9.234;2022-08-11T03:25:31;2.58;;;1.70;;
21979;SDS011;11154;48.558;9.234;2022-08-11T03:27:40;3.80;;;1.77;;
21979;SDS011;11154;48.558;9.234;2022-08-11T03:29:53;2.30;;;1.70;;
21979;SDS011;11154;48.558;9.234;2022-08-11T03:32:06;4.32;;;1.92;;
21979;SDS011;11154;48.558;9.234;2022-08-11T03:34:14;1.98;;;1.83;;
21979;SDS011;11154;48.558;9.234;2022-08-11T03:36:25;2.00;;;1.60;;
21979;SDS011;11154;48.558;9.234;2022-08-11T03:38:45;1.95;;;1.70;;
21979;SDS011;11154;48.558;9.234;2022-08-11T03:41:03;3.28;;;1.83;;
21979;SDS011;11154;48.558;9.234;2022-08-11T03:43:49;2.00;;;1.77;;
21979;SDS011;11154;48.558;9.234;2022-08-11T03:45:59;2.35;;;1.85;;
21979;SDS011;11154;48.558;9.234;2022-08-11T03:48:08;2.08;;;1.50;;
21979;SDS011;11154;48.558;9.234;2022-08-11T03:50:25;2.45;;;1.92;;
21979;SDS011;11154;48.558;9.234;2022-08-11T03:52:47;2.40;;;1.90;;
21979;SDS011;11154;48.558;9.234;2022-08-11T03:54:57;1.63;;;1.52;;
21979;SDS011;11154;48.558;9.234;2022-08-11T04:00:03;1.90;;;1.58;;
21979;SDS011;11154;48.558;9.234;2022-08-11T04:02:21;6.88;;;2.10;;
21979;SDS011;11154;48.558;9.234;2022-08-11T04:04:51;3.30;;;1.77;;
21979;SDS011;11154;48.558;9.234;2022-08-11T04:12:21;2.40;;;1.85;;
21979;SDS011;11154;48.558;9.234;2022-08-11T04:14:41;2.50;;;1.60;;
21979;SDS011;11154;48.558;9.234;2022-08-11T04:17:34;3.78;;;1.90;;
21979;SDS011;11154;48.558;9.234;2022-08-11T04:20:05;3.85;;;1.98;;
21979;SDS011;11154;48.558;9.234;2022-08-11T04:24:57;3.60;;;2.10;;
21979;SDS011;11154;48.558;9.234;2022-08-11T04:29:56;3.45;;;2.17;;
21979;SDS011;11154;48.558;9.234;2022-08-11T04:32:09;2.90;;;2.20;;
21979;SDS011;11154;48.558;9.234;2022-08-11T04:37:03;3.08;;;1.90;;
21979;SDS011;11154;48.558;9.234;2022-08-11T04:39:38;2.80;;;2.25;;
21979;SDS011;11154;48.558;9.234;2022-08-11T04:42:03;3.72;;;2.33;;
21979;SDS011;11154;48.558;9.234;2022-08-11T04:44:47;5.55;;;4.18;;
21979;SDS011;11154;48.558;9.234;2022-08-11T04:47:21;4.43;;;2.30;;
21979;SDS011;11154;48.558;9.234;2022-08-11T04:50:28;3.38;;;2.33;;
21979;SDS011;11154;48.558;9.234;2022-08-11T04:53:07;4.65;;;1.98;;
21979;SDS011;11154;48.558;9.234;2022-08-11T04:55:44;4.97;;;2.55;;
21979;SDS011;11154;48.558;9.234;2022-08-11T04:58:27;3.72;;;2.20;;
21979;SDS011;11154;48.558;9.234;2022-08-11T05:01:05;4.05;;;2.10;;
21979;SDS011;11154;48.558;9.234;2022-08-11T05:03:42;2.90;;;2.20;;
21979;SDS011;11154;48.558;9.234;2022-08-11T05:06:08;2.92;;;2.05;;
21979;SDS011;11154;48.558;9.234;2022-08-11T05:08:49;2.65;;;1.98;;
21979;SDS011;11154;48.558;9.234;2022-08-11T05:11:10;3.38;;;2.10;;
21979;SDS011;11154;48.558;9.234;2022-08-11T05:13:32;3.05;;;2.25;;
21979;SDS011;11154;48.558;9.234;2022-08-11T05:15:55;2.47;;;2.13;;
21979;SDS011;11154;48.558;9.234;2022-08-11T05:18:18;2.60;;;2.10;;
21979;SDS011;11154;48.558;9.234;2022-08-11T05:20:50;2.00;;;1.77;;
21979;SDS011;11154;48.558;9.234;2022-08-11T05:23:12;1.83;;;1.73;;
21979;SDS011;11154;48.558;9.234;2022-08-11T05:25:34;3.45;;;1.95;;
21979;SDS011;11154;48.558;9.234;2022-08-11T05:28:02;2.65;;;2.17;;
21979;SDS011;11154;48.558;9.234;2022-08-11T05:30:26;3.95;;;1.83;;
21979;SDS011;11154;48.558;9.234;2022-08-11T05:32:52;2.17;;;1.92;;
21979;SDS011;11154;48.558;9.234;2022-08-11T05:35:16;4.03;;;2.10;;
21979;SDS011;11154;48.558;9.234;2022-08-11T05:39:39;3.55;;;2.00;;
21979;SDS011;11154;48.558;9.234;2022-08-11T05:42:03;2.28;;;1.83;;
21979;SDS011;11154;48.558;9.234;2022-08-11T05:44:24;3.30;;;1.90;;
21979;SDS011;11154;48.558;9.234;2022-08-11T05:46:46;4.28;;;2.33;;
21979;SDS011;11154;48.558;9.234;2022-08-11T05:49:07;2.83;;;2.10;;
21979;SDS011;11154;48.558;9.234;2022-08-11T05:51:32;5.28;;;2.35;;
21979;SDS011;11154;48.558;9.234;2022-08-11T05:53:53;2.97;;;2.28;;
21979;SDS011;11154;48.558;9.234;2022-08-11T05:56:17;2.50;;;2.28;;
21979;SDS011;11154;48.558;9.234;2022-08-11T05:58:19;3.72;;;1.75;;
21979;SDS011;11154;48.558;9.234;2022-08-11T06:00:21;2.80;;;2.20;;
21979;SDS011;11154;48.558;9.234;2022-08-11T06:02:23;3.05;;;1.85;;
21979;SDS011;11154;48.558;9.234;2022-08-11T06:04:26;3.28;;;2.30;;
21979;SDS011;11154;48.558;9.234;2022-08-11T06:06:28;2.72;;;2.00;;
21979;SDS011;11154;48.558;9.234;2022-08-11T06:08:32;2.45;;;1.80;;
21979;SDS011;11154;48.558;9.234;2022-08-11T06:10:36;2.65;;;1.75;;
21979;SDS011;11154;48.558;9.234;2022-08-11T06:12:40;3.53;;;1.98;;
21979;SDS011;11154;48.558;9.234;2022-08-11T06:14:43;3.33;;;2.00;;
21979;SDS011;11154;48.558;9.234;2022-08-11T06:16:47;2.97;;;2.13;;
21979;SDS011;11154;48.558;9.234;2022-08-11T06:18:49;2.72;;;1.90;;
21979;SDS011;11154;48.558;9.234;2022-08-11T06:20:52;3.28;;;2.00;;
21979;SDS011;11154;48.558;9.234;2022-08-11T06:22:56;2.83;;;1.83;;
21979;SDS011;11154;48.558;9.234;2022-08-11T06:25:01;3.28;;;2.00;;
21979;SDS011;11154;48.558;9.234;2022-08-11T06:27:03;2.17;;;1.95;;
21979;SDS011;11154;48.558;9.234;2022-08-11T06:29:08;4.10;;;2.53;;
21979;SDS011;11154;48.558;9.234;2022-08-11T06:31:12;4.38;;;2.08;;
21979;SDS011;11154;48.558;9.234;2022-08-11T06:33:17;3.50;;;1.88;;
21979;SDS011;11154;48.558;9.234;2022-08-11T06:35:34;5.50;;;2.00;;
21979;SDS011;11154;48.558;9.234;2022-08-11T06:37:45;2.80;;;1.85;;
21979;SDS011;11154;48.558;9.234;2022-08-11T06:40:02;3.92;;;1.80;;
21979;SDS011;11154;48.558;9.234;2022-08-11T06:42:08;2.85;;;2.17;;
21979;SDS011;11154;48.558;9.234;2022-08-11T06:44:18;2.45;;;1.90;;
21979;SDS011;11154;48.558;9.234;2022-08-11T06:46:25;2.33;;;1.67;;
21979;SDS011;11154;48.558;9.234;2022-08-11T06:48:30;2.53;;;1.90;;
21979;SDS011;11154;48.558;9.234;2022-08-11T06:50:33;3.75;;;1.98;;
21979;SDS011;11154;48.558;9.234;2022-08-11T06:52:53;2.90;;;2.00;;
21979;SDS011;11154;48.558;9.234;2022-08-11T06:54:56;2.50;;;1.85;;
21979;SDS011;11154;48.558;9.234;2022-08-11T06:57:05;2.63;;;1.80;;
21979;SDS011;11154;48.558;9.234;2022-08-11T06:59:27;2.85;;;1.98;;
21979;SDS011;11154;48.558;9.234;2022-08-11T07:01:49;2.47;;;2.10;;
21979;SDS011;11154;48.558;9.234;2022-08-11T07:03:59;4.03;;;2.10;;
21979;SDS011;11154;48.558;9.234;2022-08-11T07:06:09;2.58;;;2.05;;
21979;SDS011;11154;48.558;9.234;2022-08-11T07:08:44;4.45;;;2.00;;
21979;SDS011;11154;48.558;9.234;2022-08-11T07:11:47;2.50;;;1.95;;
21979;SDS011;11154;48.558;9.234;2022-08-11T07:14:18;3.40;;;2.00;;
21979;SDS011;11154;48.558;9.234;2022-08-11T07:16:44;3.47;;;2.10;;
21979;SDS011;11154;48.558;9.234;2022-08-11T07:18:49;4.38;;;2.05;;
21979;SDS011;11154;48.558;9.234;2022-08-11T07:21:12;3.88;;;2.05;;
21979;SDS011;11154;48.558;9.234;2022-08-11T07:23:37;3.00;;;2.10;;
21979;SDS011;11154;48.558;9.234;2022-08-11T07:25:58;2.83;;;2.20;;
21979;SDS011;11154;48.558;9.234;2022-08-11T07:28:20;2.65;;;2.08;;
21979;SDS011;11154;48.558;9.234;2022-08-11T07:30:42;2.85;;;1.80;;
21979;SDS011;11154;48.558;9.234;2022-08-11T07:32:46;4.32;;;2.10;;
21979;SDS011;11154;48.558;9.234;2022-08-11T07:34:54;6.57;;;2.20;;
21979;SDS011;11154;48.558;9.234;2022-08-11T07:37:01;2.65;;;2.08;;
21979;SDS011;11154;48.558;9.234;2022-08-11T07:39:09;5.47;;;2.20;;
21979;SDS011;11154;48.558;9.234;2022-08-11T07:41:18;3.50;;;2.05;;
21979;SDS011;11154;48.558;9.234;2022-08-11T07:43:22;4.22;;;2.13;;
21979;SDS011;11154;48.558;9.234;2022-08-11T07:45:24;2.67;;;2.05;;
21979;SDS011;11154;48.558;9.234;2022-08-11T07:47:46;2.42;;;2.20;;
21979;SDS011;11154;48.558;9.234;2022-08-11T07:50:05;3.72;;;2.03;;
21979;SDS011;11154;48.558;9.234;2022-08-11T07:52:28;3.47;;;2.05;;
21979;SDS011;11154;48.558;9.234;2022-08-11T07:54:31;3.65;;;2.35;;
21979;SDS011;11154;48.558;9.234;2022-08-11T07:56:34;3.10;;;2.30;;
21979;SDS011;11154;48.558;9.234;2022-08-11T07:58:37;3.78;;;2.53;;
21979;SDS011;11154;48.558;9.234;2022-08-11T08:00:57;3.63;;;1.77;;
21979;SDS011;11154;48.558;9.234;2022-08-11T08:03:17;2.77;;;1.83;;
21979;SDS011;11154;48.558;9.234;2022-08-11T08:05:37;2.67;;;1.90;;
21979;SDS011;11154;48.558;9.234;2022-08-11T08:07:57;2.85;;;2.10;;
21979;SDS011;11154;48.558;9.234;2022-08-11T08:10:16;3.15;;;1.90;;
21979;SDS011;11154;48.558;9.234;2022-08-11T08:12:36;3.50;;;2.28;;
21979;SDS011;11154;48.558;9.234;2022-08-11T08:14:57;5.72;;;2.03;;
21979;SDS011;11154;48.558;9.234;2022-08-11T08:17:19;1.98;;;1.70;;
21979;SDS011;11154;48.558;9.234;2022-08-11T08:19:40;4.55;;;1.98;;
21979;SDS011;11154;48.558;9.234;2022-08-11T08:21:44;2.25;;;2.05;;
21979;SDS011;11154;48.558;9.234;2022-08-11T08:23:47;2.60;;;1.70;;
21979;SDS011;11154;48.558;9.234;2022-08-11T08:25:49;4.18;;;2.05;;
21979;SDS011;11154;48.558;9.234;2022-08-11T08:27:52;6.75;;;2.22;;
21979;SDS011;11154;48.558;9.234;2022-08-11T08:29:56;3.03;;;1.60;;
21979;SDS011;11154;48.558;9.234;2022-08-11T08:32:16;3.45;;;1.88;;
21979;SDS011;11154;48.558;9.234;2022-08-11T08:34:19;2.40;;;1.80;;
21979;SDS011;11154;48.558;9.234;2022-08-11T08:36:23;3.05;;;1.95;;
21979;SDS011;11154;48.558;9.234;2022-08-11T08:38:24;3.70;;;1.90;;
21979;SDS011;11154;48.558;9.234;2022-08-11T08:40:26;3.58;;;1.83;;
21979;SDS011;11154;48.558;9.234;2022-08-11T08:42:29;4.88;;;2.13;;
21979;SDS011;11154;48.558;9.234;2022-08-11T08:44:40;2.90;;;2.05;;
21979;SDS011;11154;48.558;9.234;2022-08-11T08:46:47;4.88;;;1.90;;
21979;SDS011;11154;48.558;9.234;2022-08-11T08:48:50;2.83;;;1.50;;
21979;SDS011;11154;48.558;9.234;2022-08-11T08:50:54;1.67;;;1.33;;
21979;SDS011;11154;48.558;9.234;2022-08-11T08:53:20;4.68;;;1.60;;
21979;SDS011;11154;48.558;9.234;2022-08-11T08:55:23;2.22;;;1.60;;
21979;SDS011;11154;48.558;9.234;2022-08-11T08:57:28;4.25;;;1.70;;
21979;SDS011;11154;48.558;9.234;2022-08-11T08:59:38;2.95;;;1.50;;
21979;SDS011;11154;48.558;9.234;2022-08-11T09:01:41;2.35;;;1.67;;
21979;SDS011;11154;48.558;9.234;2022-08-11T09:03:46;2.28;;;1.60;;
21979;SDS011;11154;48.558;9.234;2022-08-11T09:05:48;3.95;;;1.30;;
21979;SDS011;11154;48.558;9.234;2022-08-11T09:07:50;3.45;;;1.60;;
21979;SDS011;11154;48.558;9.234;2022-08-11T09:09:58;3.20;;;1.77;;
21979;SDS011;11154;48.558;9.234;2022-08-11T09:12:00;2.20;;;1.30;;
21979;SDS011;11154;48.558;9.234;2022-08-11T09:14:04;1.40;;;1.30;;
21979;SDS011;11154;48.558;9.234;2022-08-11T09:16:06;2.67;;;1.38;;
21979;SDS011;11154;48.558;9.234;2022-08-11T09:18:10;1.85;;;1.45;;
21979;SDS011;11154;48.558;9.234;2022-08-11T09:20:15;2.22;;;1.60;;
21979;SDS011;11154;48.558;9.234;2022-08-11T09:22:18;2.70;;;1.42;;
21979;SDS011;11154;48.558;9.234;2022-08-11T09:24:38;1.85;;;1.52;;
21979;SDS011;11154;48.558;9.234;2022-08-11T09:27:00;1.92;;;1.55;;
21979;SDS011;11154;48.558;9.234;2022-08-11T09:29:06;3.53;;;1.67;;
21979;SDS011;11154;48.558;9.234;2022-08-11T09:31:09;3.03;;;1.30;;
21979;SDS011;11154;48.558;9.234;2022-08-11T09:33:13;1.67;;;1.42;;
21979;SDS011;11154;48.558;9.234;2022-08-11T09:35:16;4.15;;;1.40;;
21979;SDS011;11154;48.558;9.234;2022-08-11T09:37:18;2.50;;;1.40;;
21979;SDS011;11154;48.558;9.234;2022-08-11T09:39:40;3.17;;;1.50;;
21979;SDS011;11154;48.558;9.234;2022-08-11T09:42:01;3.67;;;1.40;;
21979;SDS011;11154;48.558;9.234;2022-08-11T09:44:04;4.75;;;1.40;;
21979;SDS011;11154;48.558;9.234;2022-08-11T09:46:25;1.48;;;1.33;;
21979;SDS011;11154;48.558;9.234;2022-08-11T09:48:29;2.50;;;1.40;;
21979;SDS011;11154;48.558;9.234;2022-08-11T09:50:35;2.45;;;1.55;;
21979;SDS011;11154;48.558;9.234;2022-08-11T09:52:38;1.63;;;1.42;;
21979;SDS011;11154;48.558;9.234;2022-08-11T09:54:41;1.63;;;1.48;;
21979;SDS011;11154;48.558;9.234;2022-08-11T09:56:44;5.25;;;1.55;;
21979;SDS011;11154;48.558;9.234;2022-08-11T09:59:04;5.55;;;1.27;;
21979;SDS011;11154;48.558;9.234;2022-08-11T10:01:07;2.15;;;1.23;;
21979;SDS011;11154;48.558;9.234;2022-08-11T10:03:26;1.98;;;1.30;;
21979;SDS011;11154;48.558;9.234;2022-08-11T10:05:30;2.10;;;1.55;;
21979;SDS011;11154;48.558;9.234;2022-08-11T10:07:50;2.55;;;1.45;;
21979;SDS011;11154;48.558;9.234;2022-08-11T10:09:55;2.15;;;1.40;;
21979;SDS011;11154;48.558;9.234;2022-08-11T10:12:01;3.72;;;1.40;;
21979;SDS011;11154;48.558;9.234;2022-08-11T10:14:08;1.20;;;1.10;;
21979;SDS011;11154;48.558;9.234;2022-08-11T10:16:28;3.33;;;1.27;;
21979;SDS011;11154;48.558;9.234;2022-08-11T10:18:34;2.35;;;1.40;;
21979;SDS011;11154;48.558;9.234;2022-08-11T10:20:51;1.88;;;1.33;;
21979;SDS011;11154;48.558;9.234;2022-08-11T10:22:58;1.98;;;1.35;;
21979;SDS011;11154;48.558;9.234;2022-08-11T10:25:18;2.00;;;1.38;;
21979;SDS011;11154;48.558;9.234;2022-08-11T10:27:38;1.65;;;1.13;;
21979;SDS011;11154;48.558;9.234;2022-08-11T10:29:45;5.97;;;1.60;;
21979;SDS011;11154;48.558;9.234;2022-08-11T10:32:05;1.50;;;1.10;;
21979;SDS011;11154;48.558;9.234;2022-08-11T10:34:26;2.55;;;1.30;;
21979;SDS011;11154;48.558;9.234;2022-08-11T10:36:29;2.40;;;1.30;;
21979;SDS011;11154;48.558;9.234;2022-08-11T10:38:32;1.83;;;1.08;;
21979;SDS011;11154;48.558;9.234;2022-08-11T10:40:36;1.90;;;1.40;;
21979;SDS011;11154;48.558;9.234;2022-08-11T10:42:40;1.38;;;1.23;;
21979;SDS011;11154;48.558;9.234;2022-08-11T10:45:02;3.83;;;1.40;;
21979;SDS011;11154;48.558;9.234;2022-08-11T10:47:27;1.60;;;1.30;;
21979;SDS011;11154;48.558;9.234;2022-08-11T10:49:34;2.60;;;1.40;;
21979;SDS011;11154;48.558;9.234;2022-08-11T10:51:37;1.95;;;1.20;;
21979;SDS011;11154;48.558;9.234;2022-08-11T10:53:57;2.75;;;1.40;;
21979;SDS011;11154;48.558;9.234;2022-08-11T10:56:17;1.20;;;1.10;;
21979;SDS011;11154;48.558;9.234;2022-08-11T10:58:37;1.58;;;1.10;;
21979;SDS011;11154;48.558;9.234;2022-08-11T11:00:48;2.13;;;1.25;;
21979;SDS011;11154;48.558;9.234;2022-08-11T11:02:51;1.90;;;1.23;;
21979;SDS011;11154;48.558;9.234;2022-08-11T11:04:57;4.93;;;1.30;;
21979;SDS011;11154;48.558;9.234;2022-08-11T11:07:03;3.30;;;1.50;;
21979;SDS011;11154;48.558;9.234;2022-08-11T11:09:14;2.20;;;1.35;;
21979;SDS011;11154;48.558;9.234;2022-08-11T11:11:19;2.65;;;1.25;;
21979;SDS011;11154;48.558;9.234;2022-08-11T11:13:23;3.17;;;1.30;;
21979;SDS011;11154;48.558;9.234;2022-08-11T11:15:44;2.30;;;1.40;;
21979;SDS011;11154;48.558;9.234;2022-08-11T11:18:07;4.10;;;1.20;;
21979;SDS011;11154;48.558;9.234;2022-08-11T11:20:13;2.70;;;1.13;;
21979;SDS011;11154;48.558;9.234;2022-08-11T11:22:18;0.95;;;0.95;;
21979;SDS011;11154;48.558;9.234;2022-08-11T11:24:41;5.07;;;1.50;;
21979;SDS011;11154;48.558;9.234;2022-08-11T11:26:58;2.42;;;1.20;;
21979;SDS011;11154;48.558;9.234;2022-08-11T11:29:32;1.33;;;1.10;;
21979;SDS011;11154;48.558;9.234;2022-08-11T11:31:57;2.40;;;1.10;;
21979;SDS011;11154;48.558;9.234;2022-08-11T11:34:14;4.68;;;1.33;;
21979;SDS011;11154;48.558;9.234;2022-08-11T11:36:24;1.27;;;1.17;;
21979;SDS011;11154;48.558;9.234;2022-08-11T11:38:34;2.15;;;1.20;;
21979;SDS011;11154;48.558;9.234;2022-08-11T11:40:37;1.83;;;1.10;;
21979;SDS011;11154;48.558;9.234;2022-08-11T11:42:40;2.35;;;1.27;;
21979;SDS011;11154;48.558;9.234;2022-08-11T11:44:44;1.85;;;1.15;;
21979;SDS011;11154;48.558;9.234;2022-08-11T11:46:48;1.88;;;1.23;;
21979;SDS011;11154;48.558;9.234;2022-08-11T11:48:51;1.63;;;1.10;;
21979;SDS011;11154;48.558;9.234;2022-08-11T11:50:55;3.75;;;1.30;;
21979;SDS011;11154;48.558;9.234;2022-08-11T11:52:57;2.80;;;1.40;;
21979;SDS011;11154;48.558;9.234;2022-08-11T11:55:00;7.35;;;1.30;;
21979;SDS011;11154;48.558;9.234;2022-08-11T11:57:04;2.55;;;1.17;;
21979;SDS011;11154;48.558;9.234;2022-08-11T11:59:20;2.90;;;1.10;;
21979;SDS011;11154;48.558;9.234;2022-08-11T12:01:42;2.60;;;1.10;;
21979;SDS011;11154;48.558;9.234;2022-08-11T12:03:47;1.90;;;1.25;;
21979;SDS011;11154;48.558;9.234;2022-08-11T12:05:51;2.90;;;1.25;;
21979;SDS011;11154;48.558;9.234;2022-08-11T12:07:55;1.95;;;1.05;;
21979;SDS011;11154;48.558;9.234;2022-08-11T12:10:12;3.42;;;1.20;;
21979;SDS011;11154;48.558;9.234;2022-08-11T12:12:14;1.70;;;1.10;;
21979;SDS011;11154;48.558;9.234;2022-08-11T12:14:33;2.05;;;1.45;;
21979;SDS011;11154;48.558;9.234;2022-08-11T12:16:37;3.05;;;1.20;;
21979;SDS011;11154;48.558;9.234;2022-08-11T12:18:42;2.25;;;1.35;;
21979;SDS011;11154;48.558;9.234;2022-08-11T12:20:45;2.03;;;1.10;;
21979;SDS011;11154;48.558;9.234;2022-08-11T12:22:48;3.03;;;1.10;;
21979;SDS011;11154;48.558;9.234;2022-08-11T12:25:09;1.23;;;1.00;;
21979;SDS011;11154;48.558;9.234;2022-08-11T12:27:28;2.45;;;1.20;;
21979;SDS011;11154;48.558;9.234;2022-08-11T12:29:31;2.92;;;1.17;;
21979;SDS011;11154;48.558;9.234;2022-08-11T12:31:34;2.53;;;1.13;;
21979;SDS011;11154;48.558;9.234;2022-08-11T12:33:37;2.90;;;1.20;;
21979;SDS011;11154;48.558;9.234;2022-08-11T12:35:40;1.52;;;1.30;;
21979;SDS011;11154;48.558;9.234;2022-08-11T12:37:44;2.22;;;1.25;;
21979;SDS011;11154;48.558;9.234;2022-08-11T12:39:50;6.05;;;1.15;;
21979;SDS011;11154;48.558;9.234;2022-08-11T12:42:16;3.78;;;1.10;;
21979;SDS011;11154;48.558;9.234;2022-08-11T12:44:36;2.22;;;1.08;;
21979;SDS011;11154;48.558;9.234;2022-08-11T12:46:56;1.95;;;1.38;;
21979;SDS011;11154;48.558;9.234;2022-08-11T12:49:03;2.20;;;1.33;;
21979;SDS011;11154;48.558;9.234;2022-08-11T12:51:28;1.83;;;1.00;;
21979;SDS011;11154;48.558;9.234;2022-08-11T12:53:51;2.28;;;1.20;;
21979;SDS011;11154;48.558;9.234;2022-08-11T12:55:58;4.70;;;1.48;;
21979;SDS011;11154;48.558;9.234;2022-08-11T12:58:25;2.58;;;1.45;;
21979;SDS011;11154;48.558;9.234;2022-08-11T13:00:28;6.18;;;1.58;;
21979;SDS011;11154;48.558;9.234;2022-08-11T13:02:49;1.10;;;1.00;;
21979;SDS011;11154;48.558;9.234;2022-08-11T13:05:10;3.28;;;1.02;;
21979;SDS011;11154;48.558;9.234;2022-08-11T13:07:13;1.45;;;1.08;;
21979;SDS011;11154;48.558;9.234;2022-08-11T13:09:16;1.88;;;1.08;;
21979;SDS011;11154;48.558;9.234;2022-08-11T13:11:20;1.67;;;1.35;;
21979;SDS011;11154;48.558;9.234;2022-08-11T13:13:41;2.45;;;1.10;;
21979;SDS011;11154;48.558;9.234;2022-08-11T13:15:45;3.50;;;1.23;;
21979;SDS011;11154;48.558;9.234;2022-08-11T13:17:49;3.13;;;1.08;;
21979;SDS011;11154;48.558;9.234;2022-08-11T13:19:52;1.13;;;1.02;;
21979;SDS011;11154;48.558;9.234;2022-08-11T13:21:54;1.40;;;1.30;;
21979;SDS011;11154;48.558;9.234;2022-08-11T13:23:57;2.03;;;1.30;;
21979;SDS011;11154;48.558;9.234;2022-08-11T13:26:01;1.10;;;1.00;;
21979;SDS011;11154;48.558;9.234;2022-08-11T13:28:03;1.13;;;1.00;;
21979;SDS011;11154;48.558;9.234;2022-08-11T13:30:09;1.52;;;1.10;;
21979;SDS011;11154;48.558;9.234;2022-08-11T13:32:28;2.80;;;1.33;;
21979;SDS011;11154;48.558;9.234;2022-08-11T13:34:30;3.22;;;1.38;;
21979;SDS011;11154;48.558;9.234;2022-08-11T13:36:34;2.15;;;1.15;;
21979;SDS011;11154;48.558;9.234;2022-08-11T13:38:37;2.55;;;1.08;;
21979;SDS011;11154;48.558;9.234;2022-08-11T13:40:42;1.95;;;1.20;;
21979;SDS011;11154;48.558;9.234;2022-08-11T13:42:45;3.67;;;1.17;;
21979;SDS011;11154;48.558;9.234;2022-08-11T13:44:48;3.70;;;1.30;;
21979;SDS011;11154;48.558;9.234;2022-08-11T13:46:52;3.47;;;1.20;;
21979;SDS011;11154;48.558;9.234;2022-08-11T13:48:56;2.13;;;1.05;;
21979;SDS011;11154;48.558;9.234;2022-08-11T13:50:58;3.35;;;1.00;;
21979;SDS011;11154;48.558;9.234;2022-08-11T13:53:29;2.13;;;1.13;;
21979;SDS011;11154;48.558;9.234;2022-08-11T13:55:31;2.13;;;1.05;;
21979;SDS011;11154;48.558;9.234;2022-08-11T13:57:33;1.77;;;1.08;;
21979;SDS011;11154;48.558;9.234;2022-08-11T13:59:37;2.03;;;1.35;;
21979;SDS011;11154;48.558;9.234;2022-08-11T14:01:40;2.25;;;1.10;;
21979;SDS011;11154;48.558;9.234;2022-08-11T14:03:48;4.60;;;1.38;;
21979;SDS011;11154;48.558;9.234;2022-08-11T14:05:51;1.27;;;1.00;;
21979;SDS011;11154;48.558;9.234;2022-08-11T14:07:57;4.72;;;1.25;;
21979;SDS011;11154;48.558;9.234;2022-08-11T14:10:01;1.60;;;1.17;;
21979;SDS011;11154;48.558;9.234;2022-08-11T14:12:06;2.75;;;1.10;;
21979;SDS011;11154;48.558;9.234;2022-08-11T14:14:36;2.25;;;1.10;;